sensor_id;sensor_type;location;lat;lon;timestamp;P1;durP1;ratioP1;P2;durP2;ratioP2
17773;SDS011;9011;33.236;-97.118;2023-03-23T00:00:02;8.57;;;5.05;;
17773;SDS011;9011;33.236;-97.118;2023-03-23T00:02:34;6.78;;;4.03;;
17773;SDS011;9011;33.236;-97.118;2023-03-23T00:05:03;5.32;;;4.38;;
17773;SDS011;9011;33.236;-97.118;2023-03-23T00:07:34;5.85;;;4.30;;
17773;SDS011;9011;33.236;-97.118;2023-03-23T00:10:03;6.10;;;4.15;;
17773;SDS011;9011;33.236;-97.118;2023-03-23T00:12:32;5.82;;;4.15;;
17773;SDS011;9011;33.236;-97.118;2023-03-23T00:15:01;7.97;;;4.88;;
17773;SDS011;9011;33.236;-97.118;2023-03-23T00:17:30;6.57;;;4.53;;
17773;SDS011;9011;33.236;-97.118;2023-03-23T00:20:02;7.97;;;4.45;;
17773;SDS011;9011;33.236;-97.118;2023-03-23T00:22:32;8.25;;;5.20;;
17773;SDS011;9011;33.236;-97.118;2023-03-23T00:25:03;8.98;;;4.97;;
17773;SDS011;9011;33.236;-97.118;2023-03-23T00:27:33;8.60;;;4.70;;
17773;SDS011;9011;33.236;-97.118;2023-03-23T00:30:02;5.32;;;4.43;;
17773;SDS011;9011;33.236;-97.118;2023-03-23T00:32:33;8.20;;;4.82;;
17773;SDS011;9011;33.236;-97.118;2023-03-23T00:35:03;7.60;;;4.55;;
17773;SDS011;9011;33.236;-97.118;2023-03-23T00:37:32;8.80;;;4.60;;
17773;SDS011;9011;33.236;-97.118;2023-03-23T00:40:01;5.53;;;4.63;;
17773;SDS011;9011;33.236;-97.118;2023-03-23T00:42:34;6.15;;;4.20;;
17773;SDS011;9011;33.236;-97.118;2023-03-23T00:45:04;6.78;;;4.65;;
17773;SDS011;9011;33.236;-97.118;2023-03-23T00:47:36;8.10;;;4.55;;
17773;SDS011;9011;33.236;-97.118;2023-03-23T00:50:08;6.88;;;4.70;;
17773;SDS011;9011;33.236;-97.118;2023-03-23T00:52:38;9.50;;;5.10;;
17773;SDS011;9011;33.236;-97.118;2023-03-23T00:55:07;9.27;;;4.43;;
17773;SDS011;9011;33.236;-97.118;2023-03-23T00:57:36;8.57;;;4.63;;
17773;SDS011;9011;33.236;-97.118;2023-03-23T01:00:05;8.63;;;4.90;;
17773;SDS011;9011;33.236;-97.118;2023-03-23T01:02:36;7.72;;;4.90;;
17773;SDS011;9011;33.236;-97.118;2023-03-23T01:05:08;8.07;;;4.88;;
17773;SDS011;9011;33.236;-97.118;2023-03-23T01:07:37;11.10;;;5.03;;
17773;SDS011;9011;33.236;-97.118;2023-03-23T01:10:06;11.90;;;5.50;;
17773;SDS011;9011;33.236;-97.118;2023-03-23T01:12:38;11.55;;;4.40;;
17773;SDS011;9011;33.236;-97.118;2023-03-23T01:15:06;8.52;;;4.72;;
17773;SDS011;9011;33.236;-97.118;2023-03-23T01:17:35;8.68;;;5.10;;
17773;SDS011;9011;33.236;-97.118;2023-03-23T01:20:05;6.05;;;4.57;;
17773;SDS011;9011;33.236;-97.118;2023-03-23T01:22:36;7.70;;;4.78;;
17773;SDS011;9011;33.236;-97.118;2023-03-23T01:25:06;7.38;;;4.22;;
17773;SDS011;9011;33.236;-97.118;2023-03-23T01:27:36;8.57;;;3.97;;
17773;SDS011;9011;33.236;-97.118;2023-03-23T01:30:05;8.13;;;4.05;;
17773;SDS011;9011;33.236;-97.118;2023-03-23T01:32:35;7.97;;;4.68;;
17773;SDS011;9011;33.236;-97.118;2023-03-23T01:35:04;6.65;;;4.13;;
17773;SDS011;9011;33.236;-97.118;2023-03-23T01:37:35;6.63;;;4.03;;
17773;SDS011;9011;33.236;-97.118;2023-03-23T01:40:04;8.05;;;4.57;;
17773;SDS011;9011;33.236;-97.118;2023-03-23T01:42:34;6.63;;;4.07;;
17773;SDS011;9011;33.236;-97.118;2023-03-23T01:48:04;8.30;;;4.30;;
17773;SDS011;9011;33.236;-97.118;2023-03-23T01:50:42;8.68;;;4.30;;
17773;SDS011;9011;33.236;-97.118;2023-03-23T01:53:18;10.60;;;4.70;;
17773;SDS011;9011;33.236;-97.118;2023-03-23T01:55:47;7.78;;;4.43;;
17773;SDS011;9011;33.236;-97.118;2023-03-23T01:58:18;7.57;;;4.35;;
17773;SDS011;9011;33.236;-97.118;2023-03-23T02:00:52;6.72;;;4.32;;
17773;SDS011;9011;33.236;-97.118;2023-03-23T02:03:22;10.77;;;4.68;;
17773;SDS011;9011;33.236;-97.118;2023-03-23T02:05:51;8.48;;;5.20;;
17773;SDS011;9011;33.236;-97.118;2023-03-23T02:08:22;7.80;;;4.18;;
17773;SDS011;9011;33.236;-97.118;2023-03-23T02:10:50;8.43;;;4.88;;
17773;SDS011;9011;33.236;-97.118;2023-03-23T02:13:21;9.13;;;4.40;;
17773;SDS011;9011;33.236;-97.118;2023-03-23T02:15:53;8.15;;;4.22;;
17773;SDS011;9011;33.236;-97.118;2023-03-23T02:18:32;6.13;;;4.43;;
17773;SDS011;9011;33.236;-97.118;2023-03-23T02:21:13;8.38;;;3.78;;
17773;SDS011;9011;33.236;-97.118;2023-03-23T02:30:35;8.38;;;4.82;;
17773;SDS011;9011;33.236;-97.118;2023-03-23T02:33:19;10.98;;;4.40;;
17773;SDS011;9011;33.236;-97.118;2023-03-23T02:36:10;9.63;;;4.38;;
17773;SDS011;9011;33.236;-97.118;2023-03-23T02:38:47;8.00;;;4.38;;
17773;SDS011;9011;33.236;-97.118;2023-03-23T02:41:22;9.82;;;4.75;;
17773;SDS011;9011;33.236;-97.118;2023-03-23T02:43:58;7.63;;;4.32;;
17773;SDS011;9011;33.236;-97.118;2023-03-23T02:46:31;7.10;;;4.32;;
17773;SDS011;9011;33.236;-97.118;2023-03-23T02:51:57;7.55;;;4.07;;
17773;SDS011;9011;33.236;-97.118;2023-03-23T02:54:29;6.53;;;4.32;;
17773;SDS011;9011;33.236;-97.118;2023-03-23T02:56:58;6.80;;;4.22;;
17773;SDS011;9011;33.236;-97.118;2023-03-23T02:59:30;6.50;;;4.07;;
17773;SDS011;9011;33.236;-97.118;2023-03-23T03:02:03;9.90;;;4.25;;
17773;SDS011;9011;33.236;-97.118;2023-03-23T03:04:36;8.68;;;4.32;;
17773;SDS011;9011;33.236;-97.118;2023-03-23T03:07:12;8.38;;;4.45;;
17773;SDS011;9011;33.236;-97.118;2023-03-23T03:10:15;6.97;;;4.22;;
17773;SDS011;9011;33.236;-97.118;2023-03-23T03:12:52;6.80;;;4.18;;
17773;SDS011;9011;33.236;-97.118;2023-03-23T03:15:27;6.80;;;3.88;;
17773;SDS011;9011;33.236;-97.118;2023-03-23T03:18:04;8.93;;;4.47;;
17773;SDS011;9011;33.236;-97.118;2023-03-23T03:20:43;5.55;;;3.42;;
17773;SDS011;9011;33.236;-97.118;2023-03-23T03:23:14;8.80;;;3.75;;
17773;SDS011;9011;33.236;-97.118;2023-03-23T03:25:44;6.97;;;3.75;;
17773;SDS011;9011;33.236;-97.118;2023-03-23T03:28:16;9.07;;;4.03;;
17773;SDS011;9011;33.236;-97.118;2023-03-23T03:30:47;8.75;;;3.88;;
17773;SDS011;9011;33.236;-97.118;2023-03-23T03:33:20;7.53;;;3.88;;
17773;SDS011;9011;33.236;-97.118;2023-03-23T03:35:53;8.15;;;3.83;;
17773;SDS011;9011;33.236;-97.118;2023-03-23T03:38:24;5.93;;;3.25;;
17773;SDS011;9011;33.236;-97.118;2023-03-23T03:40:53;7.47;;;3.53;;
17773;SDS011;9011;33.236;-97.118;2023-03-23T03:43:23;7.85;;;4.00;;
17773;SDS011;9011;33.236;-97.118;2023-03-23T03:45:52;8.85;;;4.00;;
17773;SDS011;9011;33.236;-97.118;2023-03-23T03:48:21;6.53;;;4.05;;
17773;SDS011;9011;33.236;-97.118;2023-03-23T03:50:49;7.30;;;3.70;;
17773;SDS011;9011;33.236;-97.118;2023-03-23T03:53:25;9.10;;;3.80;;
17773;SDS011;9011;33.236;-97.118;2023-03-23T03:55:57;6.75;;;3.70;;
17773;SDS011;9011;33.236;-97.118;2023-03-23T03:58:26;5.80;;;3.13;;
17773;SDS011;9011;33.236;-97.118;2023-03-23T04:00:57;10.85;;;4.35;;
17773;SDS011;9011;33.236;-97.118;2023-03-23T04:03:27;8.13;;;3.75;;
17773;SDS011;9011;33.236;-97.118;2023-03-23T04:05:55;11.32;;;4.15;;
17773;SDS011;9011;33.236;-97.118;2023-03-23T04:08:29;6.10;;;3.63;;
17773;SDS011;9011;33.236;-97.118;2023-03-23T04:11:03;4.20;;;3.13;;
17773;SDS011;9011;33.236;-97.118;2023-03-23T04:13:32;7.32;;;3.58;;
17773;SDS011;9011;33.236;-97.118;2023-03-23T04:16:00;7.75;;;3.67;;
17773;SDS011;9011;33.236;-97.118;2023-03-23T04:18:29;8.70;;;3.47;;
17773;SDS011;9011;33.236;-97.118;2023-03-23T04:21:13;9.40;;;3.88;;
17773;SDS011;9011;33.236;-97.118;2023-03-23T04:23:50;8.65;;;3.20;;
17773;SDS011;9011;33.236;-97.118;2023-03-23T04:26:19;9.27;;;3.75;;
17773;SDS011;9011;33.236;-97.118;2023-03-23T04:28:48;5.63;;;3.45;;
17773;SDS011;9011;33.236;-97.118;2023-03-23T04:31:20;6.20;;;2.90;;
17773;SDS011;9011;33.236;-97.118;2023-03-23T04:33:50;6.05;;;3.33;;
17773;SDS011;9011;33.236;-97.118;2023-03-23T04:36:19;7.97;;;3.88;;
17773;SDS011;9011;33.236;-97.118;2023-03-23T04:38:50;5.07;;;3.20;;
17773;SDS011;9011;33.236;-97.118;2023-03-23T04:41:20;6.70;;;3.75;;
17773;SDS011;9011;33.236;-97.118;2023-03-23T04:43:50;9.25;;;4.50;;
17773;SDS011;9011;33.236;-97.118;2023-03-23T04:46:22;10.55;;;3.60;;
17773;SDS011;9011;33.236;-97.118;2023-03-23T04:48:54;7.97;;;4.18;;
17773;SDS011;9011;33.236;-97.118;2023-03-23T04:51:24;9.65;;;3.20;;
17773;SDS011;9011;33.236;-97.118;2023-03-23T04:53:54;6.40;;;3.67;;
17773;SDS011;9011;33.236;-97.118;2023-03-23T04:56:23;8.60;;;3.30;;
17773;SDS011;9011;33.236;-97.118;2023-03-23T04:58:52;7.18;;;3.13;;
17773;SDS011;9011;33.236;-97.118;2023-03-23T05:01:20;8.57;;;3.72;;
17773;SDS011;9011;33.236;-97.118;2023-03-23T05:03:49;7.50;;;3.28;;
17773;SDS011;9011;33.236;-97.118;2023-03-23T05:06:18;7.55;;;3.53;;
17773;SDS011;9011;33.236;-97.118;2023-03-23T05:08:48;5.93;;;3.08;;
17773;SDS011;9011;33.236;-97.118;2023-03-23T05:11:18;10.82;;;3.83;;
17773;SDS011;9011;33.236;-97.118;2023-03-23T05:13:47;9.13;;;3.28;;
17773;SDS011;9011;33.236;-97.118;2023-03-23T05:16:17;9.73;;;3.45;;
17773;SDS011;9011;33.236;-97.118;2023-03-23T05:18:45;7.78;;;3.13;;
17773;SDS011;9011;33.236;-97.118;2023-03-23T05:21:14;7.93;;;3.28;;
17773;SDS011;9011;33.236;-97.118;2023-03-23T05:23:43;8.45;;;3.75;;
17773;SDS011;9011;33.236;-97.118;2023-03-23T05:26:11;9.68;;;3.60;;
17773;SDS011;9011;33.236;-97.118;2023-03-23T05:28:42;6.50;;;3.25;;
17773;SDS011;9011;33.236;-97.118;2023-03-23T05:31:11;8.15;;;3.40;;
17773;SDS011;9011;33.236;-97.118;2023-03-23T05:33:40;6.75;;;3.10;;
17773;SDS011;9011;33.236;-97.118;2023-03-23T05:36:08;10.23;;;3.38;;
17773;SDS011;9011;33.236;-97.118;2023-03-23T05:38:39;6.88;;;2.80;;
17773;SDS011;9011;33.236;-97.118;2023-03-23T05:41:10;9.48;;;4.25;;
17773;SDS011;9011;33.236;-97.118;2023-03-23T05:43:39;8.77;;;3.60;;
17773;SDS011;9011;33.236;-97.118;2023-03-23T05:46:09;8.60;;;3.60;;
17773;SDS011;9011;33.236;-97.118;2023-03-23T05:48:38;9.20;;;3.80;;
17773;SDS011;9011;33.236;-97.118;2023-03-23T05:51:07;10.52;;;3.60;;
17773;SDS011;9011;33.236;-97.118;2023-03-23T05:53:37;8.65;;;3.97;;
17773;SDS011;9011;33.236;-97.118;2023-03-23T05:56:06;9.32;;;3.40;;
17773;SDS011;9011;33.236;-97.118;2023-03-23T05:58:35;8.38;;;3.60;;
17773;SDS011;9011;33.236;-97.118;2023-03-23T06:01:07;11.55;;;3.83;;
17773;SDS011;9011;33.236;-97.118;2023-03-23T06:03:43;6.68;;;3.22;;
17773;SDS011;9011;33.236;-97.118;2023-03-23T06:06:13;7.88;;;3.80;;
17773;SDS011;9011;33.236;-97.118;2023-03-23T06:08:42;11.73;;;3.45;;
17773;SDS011;9011;33.236;-97.118;2023-03-23T06:11:10;8.45;;;3.88;;
17773;SDS011;9011;33.236;-97.118;2023-03-23T06:13:38;10.82;;;3.70;;
17773;SDS011;9011;33.236;-97.118;2023-03-23T06:16:09;7.88;;;3.13;;
17773;SDS011;9011;33.236;-97.118;2023-03-23T06:18:37;7.40;;;3.67;;
17773;SDS011;9011;33.236;-97.118;2023-03-23T06:21:08;10.30;;;3.83;;
17773;SDS011;9011;33.236;-97.118;2023-03-23T06:23:38;9.10;;;3.97;;
17773;SDS011;9011;33.236;-97.118;2023-03-23T06:26:07;6.93;;;4.22;;
17773;SDS011;9011;33.236;-97.118;2023-03-23T06:28:40;9.30;;;3.90;;
17773;SDS011;9011;33.236;-97.118;2023-03-23T06:31:10;8.65;;;3.35;;
17773;SDS011;9011;33.236;-97.118;2023-03-23T06:33:39;9.77;;;3.72;;
17773;SDS011;9011;33.236;-97.118;2023-03-23T06:36:08;9.05;;;3.97;;
17773;SDS011;9011;33.236;-97.118;2023-03-23T06:38:37;10.25;;;3.83;;
17773;SDS011;9011;33.236;-97.118;2023-03-23T06:41:07;7.70;;;3.80;;
17773;SDS011;9011;33.236;-97.118;2023-03-23T06:43:36;11.43;;;4.03;;
17773;SDS011;9011;33.236;-97.118;2023-03-23T06:46:05;10.63;;;4.00;;
17773;SDS011;9011;33.236;-97.118;2023-03-23T06:48:36;6.90;;;3.95;;
17773;SDS011;9011;33.236;-97.118;2023-03-23T06:51:05;9.40;;;4.13;;
17773;SDS011;9011;33.236;-97.118;2023-03-23T06:53:34;5.85;;;3.90;;
17773;SDS011;9011;33.236;-97.118;2023-03-23T06:56:03;7.13;;;3.78;;
17773;SDS011;9011;33.236;-97.118;2023-03-23T06:58:32;6.30;;;3.42;;
17773;SDS011;9011;33.236;-97.118;2023-03-23T07:01:01;9.73;;;4.30;;
17773;SDS011;9011;33.236;-97.118;2023-03-23T07:03:30;9.50;;;3.85;;
17773;SDS011;9011;33.236;-97.118;2023-03-23T07:06:00;9.70;;;4.03;;
17773;SDS011;9011;33.236;-97.118;2023-03-23T07:08:30;8.07;;;3.83;;
17773;SDS011;9011;33.236;-97.118;2023-03-23T07:10:58;8.57;;;3.88;;
17773;SDS011;9011;33.236;-97.118;2023-03-23T07:13:27;6.68;;;3.60;;
17773;SDS011;9011;33.236;-97.118;2023-03-23T07:15:56;7.57;;;4.22;;
17773;SDS011;9011;33.236;-97.118;2023-03-23T07:18:25;5.05;;;3.58;;
17773;SDS011;9011;33.236;-97.118;2023-03-23T07:20:54;8.98;;;4.45;;
17773;SDS011;9011;33.236;-97.118;2023-03-23T07:23:24;10.88;;;4.50;;
17773;SDS011;9011;33.236;-97.118;2023-03-23T07:25:55;9.32;;;4.82;;
17773;SDS011;9011;33.236;-97.118;2023-03-23T07:28:24;6.82;;;3.90;;
17773;SDS011;9011;33.236;-97.118;2023-03-23T07:30:55;6.20;;;4.20;;
17773;SDS011;9011;33.236;-97.118;2023-03-23T07:33:24;7.45;;;4.07;;
17773;SDS011;9011;33.236;-97.118;2023-03-23T07:35:53;11.80;;;4.45;;
17773;SDS011;9011;33.236;-97.118;2023-03-23T07:38:35;12.30;;;4.90;;
17773;SDS011;9011;33.236;-97.118;2023-03-23T07:41:06;7.03;;;4.35;;
17773;SDS011;9011;33.236;-97.118;2023-03-23T07:43:38;7.75;;;4.07;;
17773;SDS011;9011;33.236;-97.118;2023-03-23T07:46:06;9.02;;;4.22;;
17773;SDS011;9011;33.236;-97.118;2023-03-23T07:48:35;8.75;;;3.92;;
17773;SDS011;9011;33.236;-97.118;2023-03-23T07:51:08;7.32;;;4.57;;
17773;SDS011;9011;33.236;-97.118;2023-03-23T07:53:38;9.93;;;4.55;;
17773;SDS011;9011;33.236;-97.118;2023-03-23T07:56:10;9.45;;;4.53;;
17773;SDS011;9011;33.236;-97.118;2023-03-23T07:58:44;8.35;;;4.00;;
17773;SDS011;9011;33.236;-97.118;2023-03-23T08:01:13;9.27;;;4.07;;
17773;SDS011;9011;33.236;-97.118;2023-03-23T08:03:42;8.85;;;4.53;;
17773;SDS011;9011;33.236;-97.118;2023-03-23T08:06:10;8.27;;;5.18;;
17773;SDS011;9011;33.236;-97.118;2023-03-23T08:08:41;14.13;;;5.20;;
17773;SDS011;9011;33.236;-97.118;2023-03-23T08:11:09;8.55;;;4.68;;
17773;SDS011;9011;33.236;-97.118;2023-03-23T08:13:40;10.90;;;4.68;;
17773;SDS011;9011;33.236;-97.118;2023-03-23T08:16:09;8.15;;;4.60;;
17773;SDS011;9011;33.236;-97.118;2023-03-23T08:18:38;10.95;;;4.30;;
17773;SDS011;9011;33.236;-97.118;2023-03-23T08:21:08;9.45;;;4.18;;
17773;SDS011;9011;33.236;-97.118;2023-03-23T08:23:37;12.52;;;5.07;;
17773;SDS011;9011;33.236;-97.118;2023-03-23T08:26:07;11.10;;;4.50;;
17773;SDS011;9011;33.236;-97.118;2023-03-23T08:28:36;9.85;;;4.68;;
17773;SDS011;9011;33.236;-97.118;2023-03-23T08:31:06;14.88;;;5.13;;
17773;SDS011;9011;33.236;-97.118;2023-03-23T08:33:37;11.35;;;4.95;;
17773;SDS011;9011;33.236;-97.118;2023-03-23T08:36:07;9.93;;;4.90;;
17773;SDS011;9011;33.236;-97.118;2023-03-23T08:38:35;8.63;;;4.68;;
17773;SDS011;9011;33.236;-97.118;2023-03-23T08:41:05;10.13;;;4.97;;
17773;SDS011;9011;33.236;-97.118;2023-03-23T08:43:36;9.07;;;4.65;;
17773;SDS011;9011;33.236;-97.118;2023-03-23T08:46:05;9.35;;;4.70;;
17773;SDS011;9011;33.236;-97.118;2023-03-23T08:48:36;11.48;;;4.68;;
17773;SDS011;9011;33.236;-97.118;2023-03-23T08:51:05;13.88;;;5.00;;
17773;SDS011;9011;33.236;-97.118;2023-03-23T08:53:34;9.82;;;4.65;;
17773;SDS011;9011;33.236;-97.118;2023-03-23T08:56:03;10.35;;;4.95;;
17773;SDS011;9011;33.236;-97.118;2023-03-23T08:58:35;10.60;;;4.95;;
17773;SDS011;9011;33.236;-97.118;2023-03-23T09:01:04;12.45;;;5.25;;
17773;SDS011;9011;33.236;-97.118;2023-03-23T09:03:34;8.95;;;5.38;;
17773;SDS011;9011;33.236;-97.118;2023-03-23T09:06:05;10.50;;;4.63;;
17773;SDS011;9011;33.236;-97.118;2023-03-23T09:08:34;8.70;;;5.35;;
17773;SDS011;9011;33.236;-97.118;2023-03-23T09:11:03;7.47;;;4.30;;
17773;SDS011;9011;33.236;-97.118;2023-03-23T09:13:35;9.07;;;4.95;;
17773;SDS011;9011;33.236;-97.118;2023-03-23T09:16:06;10.25;;;4.53;;
17773;SDS011;9011;33.236;-97.118;2023-03-23T09:18:35;9.95;;;4.80;;
17773;SDS011;9011;33.236;-97.118;2023-03-23T09:21:04;12.07;;;5.00;;
17773;SDS011;9011;33.236;-97.118;2023-03-23T09:23:33;10.95;;;5.50;;
17773;SDS011;9011;33.236;-97.118;2023-03-23T09:26:02;13.27;;;5.10;;
17773;SDS011;9011;33.236;-97.118;2023-03-23T09:28:31;10.02;;;4.60;;
17773;SDS011;9011;33.236;-97.118;2023-03-23T09:31:01;10.18;;;5.43;;
17773;SDS011;9011;33.236;-97.118;2023-03-23T09:33:30;10.88;;;6.05;;
17773;SDS011;9011;33.236;-97.118;2023-03-23T09:36:00;12.18;;;5.15;;
17773;SDS011;9011;33.236;-97.118;2023-03-23T09:38:30;9.55;;;4.43;;
17773;SDS011;9011;33.236;-97.118;2023-03-23T09:41:01;11.77;;;5.30;;
17773;SDS011;9011;33.236;-97.118;2023-03-23T09:43:47;9.20;;;5.55;;
17773;SDS011;9011;33.236;-97.118;2023-03-23T09:46:33;14.80;;;5.65;;
17773;SDS011;9011;33.236;-97.118;2023-03-23T09:49:09;13.00;;;5.38;;
17773;SDS011;9011;33.236;-97.118;2023-03-23T09:51:42;7.85;;;4.63;;
17773;SDS011;9011;33.236;-97.118;2023-03-23T09:54:16;11.73;;;5.97;;
17773;SDS011;9011;33.236;-97.118;2023-03-23T09:56:48;13.00;;;5.20;;
17773;SDS011;9011;33.236;-97.118;2023-03-23T09:59:22;11.43;;;5.32;;
17773;SDS011;9011;33.236;-97.118;2023-03-23T10:01:57;14.63;;;6.50;;
17773;SDS011;9011;33.236;-97.118;2023-03-23T10:04:38;9.82;;;5.45;;
17773;SDS011;9011;33.236;-97.118;2023-03-23T10:07:14;14.63;;;5.72;;
17773;SDS011;9011;33.236;-97.118;2023-03-23T10:09:44;8.43;;;5.68;;
17773;SDS011;9011;33.236;-97.118;2023-03-23T10:12:18;10.48;;;5.85;;
17773;SDS011;9011;33.236;-97.118;2023-03-23T10:17:44;11.18;;;5.40;;
17773;SDS011;9011;33.236;-97.118;2023-03-23T10:20:21;12.18;;;5.63;;
17773;SDS011;9011;33.236;-97.118;2023-03-23T10:23:02;13.70;;;5.90;;
17773;SDS011;9011;33.236;-97.118;2023-03-23T10:25:42;11.20;;;5.53;;
17773;SDS011;9011;33.236;-97.118;2023-03-23T10:28:16;11.40;;;5.72;;
17773;SDS011;9011;33.236;-97.118;2023-03-23T10:30:48;13.57;;;6.32;;
17773;SDS011;9011;33.236;-97.118;2023-03-23T10:33:20;9.77;;;5.85;;
17773;SDS011;9011;33.236;-97.118;2023-03-23T10:35:56;10.10;;;5.75;;
17773;SDS011;9011;33.236;-97.118;2023-03-23T10:38:29;10.88;;;5.78;;
17773;SDS011;9011;33.236;-97.118;2023-03-23T10:41:04;17.17;;;6.50;;
17773;SDS011;9011;33.236;-97.118;2023-03-23T10:43:38;10.43;;;5.97;;
17773;SDS011;9011;33.236;-97.118;2023-03-23T10:46:11;11.70;;;5.80;;
17773;SDS011;9011;33.236;-97.118;2023-03-23T10:48:50;11.10;;;5.93;;
17773;SDS011;9011;33.236;-97.118;2023-03-23T10:51:23;14.02;;;6.70;;
17773;SDS011;9011;33.236;-97.118;2023-03-23T10:53:58;13.43;;;6.25;;
17773;SDS011;9011;33.236;-97.118;2023-03-23T10:56:28;11.13;;;6.10;;
17773;SDS011;9011;33.236;-97.118;2023-03-23T10:59:11;13.75;;;6.07;;
17773;SDS011;9011;33.236;-97.118;2023-03-23T11:01:43;14.40;;;6.90;;
17773;SDS011;9011;33.236;-97.118;2023-03-23T11:04:16;11.95;;;6.95;;
17773;SDS011;9011;33.236;-97.118;2023-03-23T11:06:46;15.73;;;6.68;;
17773;SDS011;9011;33.236;-97.118;2023-03-23T11:09:16;16.08;;;6.10;;
17773;SDS011;9011;33.236;-97.118;2023-03-23T11:11:48;16.00;;;6.72;;
17773;SDS011;9011;33.236;-97.118;2023-03-23T11:14:19;15.18;;;7.03;;
17773;SDS011;9011;33.236;-97.118;2023-03-23T11:16:53;11.38;;;6.38;;
17773;SDS011;9011;33.236;-97.118;2023-03-23T11:19:25;11.38;;;6.20;;
17773;SDS011;9011;33.236;-97.118;2023-03-23T11:21:57;16.38;;;7.97;;
17773;SDS011;9011;33.236;-97.118;2023-03-23T11:24:33;10.70;;;6.55;;
17773;SDS011;9011;33.236;-97.118;2023-03-23T11:27:03;13.32;;;7.13;;
17773;SDS011;9011;33.236;-97.118;2023-03-23T11:29:34;19.60;;;7.00;;
17773;SDS011;9011;33.236;-97.118;2023-03-23T11:32:04;14.30;;;6.72;;
17773;SDS011;9011;33.236;-97.118;2023-03-23T11:34:40;14.52;;;7.35;;
17773;SDS011;9011;33.236;-97.118;2023-03-23T11:37:10;14.23;;;7.25;;
17773;SDS011;9011;33.236;-97.118;2023-03-23T11:39:46;16.40;;;6.63;;
17773;SDS011;9011;33.236;-97.118;2023-03-23T11:42:19;11.68;;;6.82;;
17773;SDS011;9011;33.236;-97.118;2023-03-23T11:44:48;17.00;;;6.80;;
17773;SDS011;9011;33.236;-97.118;2023-03-23T11:47:20;13.98;;;7.65;;
17773;SDS011;9011;33.236;-97.118;2023-03-23T11:49:55;15.50;;;7.65;;
17773;SDS011;9011;33.236;-97.118;2023-03-23T11:52:32;12.63;;;7.03;;
17773;SDS011;9011;33.236;-97.118;2023-03-23T11:55:08;12.43;;;7.90;;
17773;SDS011;9011;33.236;-97.118;2023-03-23T11:57:41;13.18;;;7.40;;
17773;SDS011;9011;33.236;-97.118;2023-03-23T12:00:14;12.32;;;7.22;;
17773;SDS011;9011;33.236;-97.118;2023-03-23T12:05:53;15.35;;;8.38;;
17773;SDS011;9011;33.236;-97.118;2023-03-23T12:08:34;12.35;;;7.78;;
17773;SDS011;9011;33.236;-97.118;2023-03-23T12:11:23;14.40;;;7.70;;
17773;SDS011;9011;33.236;-97.118;2023-03-23T12:13:59;14.50;;;8.57;;
17773;SDS011;9011;33.236;-97.118;2023-03-23T12:16:42;15.20;;;8.10;;
17773;SDS011;9011;33.236;-97.118;2023-03-23T12:19:21;15.27;;;8.68;;
17773;SDS011;9011;33.236;-97.118;2023-03-23T12:22:01;20.00;;;9.55;;
17773;SDS011;9011;33.236;-97.118;2023-03-23T12:24:39;22.92;;;9.50;;
17773;SDS011;9011;33.236;-97.118;2023-03-23T12:27:15;20.48;;;8.90;;
17773;SDS011;9011;33.236;-97.118;2023-03-23T12:29:55;16.40;;;9.05;;
17773;SDS011;9011;33.236;-97.118;2023-03-23T12:32:36;16.63;;;9.23;;
17773;SDS011;9011;33.236;-97.118;2023-03-23T12:35:17;15.18;;;9.18;;
17773;SDS011;9011;33.236;-97.118;2023-03-23T12:38:00;15.35;;;8.95;;
17773;SDS011;9011;33.236;-97.118;2023-03-23T12:40:41;15.80;;;9.43;;
17773;SDS011;9011;33.236;-97.118;2023-03-23T12:43:19;14.70;;;9.68;;
17773;SDS011;9011;33.236;-97.118;2023-03-23T12:48:51;16.95;;;9.55;;
17773;SDS011;9011;33.236;-97.118;2023-03-23T12:51:24;16.90;;;9.75;;
17773;SDS011;9011;33.236;-97.118;2023-03-23T12:54:01;19.45;;;10.05;;
17773;SDS011;9011;33.236;-97.118;2023-03-23T12:56:39;17.23;;;10.05;;
17773;SDS011;9011;33.236;-97.118;2023-03-23T12:59:15;20.65;;;9.77;;
17773;SDS011;9011;33.236;-97.118;2023-03-23T13:01:50;17.98;;;9.57;;
17773;SDS011;9011;33.236;-97.118;2023-03-23T13:04:23;19.33;;;9.07;;
17773;SDS011;9011;33.236;-97.118;2023-03-23T13:06:55;17.23;;;9.40;;
17773;SDS011;9011;33.236;-97.118;2023-03-23T13:09:27;18.10;;;9.93;;
17773;SDS011;9011;33.236;-97.118;2023-03-23T13:12:04;16.83;;;10.30;;
17773;SDS011;9011;33.236;-97.118;2023-03-23T13:14:39;20.50;;;9.85;;
17773;SDS011;9011;33.236;-97.118;2023-03-23T13:17:15;21.83;;;11.23;;
17773;SDS011;9011;33.236;-97.118;2023-03-23T13:19:56;17.70;;;9.20;;
17773;SDS011;9011;33.236;-97.118;2023-03-23T13:22:35;21.60;;;10.85;;
17773;SDS011;9011;33.236;-97.118;2023-03-23T13:25:13;19.92;;;9.32;;
17773;SDS011;9011;33.236;-97.118;2023-03-23T13:27:48;15.32;;;9.32;;
17773;SDS011;9011;33.236;-97.118;2023-03-23T13:30:24;18.15;;;10.02;;
17773;SDS011;9011;33.236;-97.118;2023-03-23T13:33:01;20.15;;;9.68;;
17773;SDS011;9011;33.236;-97.118;2023-03-23T13:35:33;16.65;;;9.43;;
17773;SDS011;9011;33.236;-97.118;2023-03-23T13:38:11;15.80;;;10.10;;
17773;SDS011;9011;33.236;-97.118;2023-03-23T13:40:46;19.98;;;10.15;;
17773;SDS011;9011;33.236;-97.118;2023-03-23T13:43:24;17.05;;;9.23;;
17773;SDS011;9011;33.236;-97.118;2023-03-23T13:45:54;21.00;;;9.27;;
17773;SDS011;9011;33.236;-97.118;2023-03-23T13:48:44;19.10;;;9.65;;
17773;SDS011;9011;33.236;-97.118;2023-03-23T13:51:23;17.98;;;9.68;;
17773;SDS011;9011;33.236;-97.118;2023-03-23T13:54:06;14.10;;;9.20;;
17773;SDS011;9011;33.236;-97.118;2023-03-23T13:56:55;17.88;;;9.80;;
17773;SDS011;9011;33.236;-97.118;2023-03-23T13:59:29;16.65;;;9.13;;
17773;SDS011;9011;33.236;-97.118;2023-03-23T14:05:23;18.80;;;9.98;;
17773;SDS011;9011;33.236;-97.118;2023-03-23T14:07:59;15.90;;;9.38;;
17773;SDS011;9011;33.236;-97.118;2023-03-23T14:10:34;20.25;;;10.00;;
17773;SDS011;9011;33.236;-97.118;2023-03-23T14:13:09;19.10;;;10.25;;
17773;SDS011;9011;33.236;-97.118;2023-03-23T14:15:44;16.15;;;9.05;;
17773;SDS011;9011;33.236;-97.118;2023-03-23T14:18:22;16.40;;;9.93;;
17773;SDS011;9011;33.236;-97.118;2023-03-23T14:20:54;13.65;;;10.27;;
17773;SDS011;9011;33.236;-97.118;2023-03-23T14:23:24;18.85;;;9.85;;
17773;SDS011;9011;33.236;-97.118;2023-03-23T14:25:56;15.32;;;9.25;;
17773;SDS011;9011;33.236;-97.118;2023-03-23T14:28:35;17.60;;;9.68;;
17773;SDS011;9011;33.236;-97.118;2023-03-23T14:31:09;19.50;;;10.43;;
17773;SDS011;9011;33.236;-97.118;2023-03-23T14:33:44;15.18;;;9.02;;
17773;SDS011;9011;33.236;-97.118;2023-03-23T14:36:14;18.98;;;10.13;;
17773;SDS011;9011;33.236;-97.118;2023-03-23T14:38:48;19.77;;;10.20;;
17773;SDS011;9011;33.236;-97.118;2023-03-23T14:41:24;14.20;;;9.00;;
17773;SDS011;9011;33.236;-97.118;2023-03-23T14:43:58;17.27;;;9.07;;
17773;SDS011;9011;33.236;-97.118;2023-03-23T14:46:29;12.57;;;8.60;;
17773;SDS011;9011;33.236;-97.118;2023-03-23T14:48:59;16.08;;;9.30;;
17773;SDS011;9011;33.236;-97.118;2023-03-23T14:51:29;14.60;;;10.00;;
17773;SDS011;9011;33.236;-97.118;2023-03-23T14:53:58;16.52;;;10.30;;
17773;SDS011;9011;33.236;-97.118;2023-03-23T14:56:33;16.80;;;9.75;;
17773;SDS011;9011;33.236;-97.118;2023-03-23T14:59:05;16.52;;;10.13;;
17773;SDS011;9011;33.236;-97.118;2023-03-23T15:01:35;16.48;;;8.48;;
17773;SDS011;9011;33.236;-97.118;2023-03-23T15:04:06;17.17;;;11.27;;
17773;SDS011;9011;33.236;-97.118;2023-03-23T15:06:37;14.90;;;8.30;;
17773;SDS011;9011;33.236;-97.118;2023-03-23T15:09:07;17.65;;;9.65;;
17773;SDS011;9011;33.236;-97.118;2023-03-23T15:11:39;13.00;;;8.18;;
17773;SDS011;9011;33.236;-97.118;2023-03-23T15:14:13;12.38;;;8.75;;
17773;SDS011;9011;33.236;-97.118;2023-03-23T15:16:46;16.75;;;9.02;;
17773;SDS011;9011;33.236;-97.118;2023-03-23T15:19:16;14.45;;;9.30;;
17773;SDS011;9011;33.236;-97.118;2023-03-23T15:21:48;15.68;;;8.98;;